Aviation Digital Data Service (ADDS)

Output produced by METARs form (1214 UTC 26 March 2019)
found at http://www.aviationweather.gov/metar/data/
 
HTDA 261100Z 02012KT 9999 SCT026 35/27 Q1010 NOSIG
HTKJ 261100Z 36005KT 9999 FEW040 FEW041TCU 35/14 Q1013 NOSIG
HTMW 261100Z 30020KT 9999 SCT029 FEW030CB 30/18 Q1016 NOSIG
HTZA 261100Z 30004KT 9999 SCT026 35/27 Q1010 NOSIG